Terminal Aerodrome Forecast
Issued by NWS

Current Version | Previous Version | Text Only | Print | Product List | Glossary On
Versions: 1 2 3 4 5 6 7 8 9 10 11 12 13 14 15 16
000
FTUS43 KSGF 062300
TAFJLN
TAF
KJLN 062333Z 0700/0724 16018G30KT P6SM SCT080 BKN150
     FM070200 16012G18KT P6SM BKN100
     FM070800 17012KT P6SM FEW070 SCT110 WS020/19045KT
     FM071400 20016G26KT P6SM BKN200 PROB30 0718/0724 5SM TSRA
      OVC040CB=

USA.gov is the U.S. government's official web portal to all federal, state and local government web resources and services.